createdAt,value
2023-05-19T00:00:18.183Z,95.27
2023-05-19T00:01:18.207Z,100.81
2023-05-19T00:02:18.315Z,106.62
2023-05-19T00:03:18.373Z,106.84
2023-05-19T00:04:18.288Z,101.31
2023-05-19T00:05:18.330Z,111.85
2023-05-19T00:06:18.439Z,114.34
2023-05-19T00:07:18.365Z,111.95
2023-05-19T00:08:18.404Z,118.55
2023-05-19T00:09:18.421Z,115.92
2023-05-19T00:10:18.493Z,115.20
2023-05-19T00:11:18.487Z,111.17
2023-05-19T00:12:18.528Z,115.38
2023-05-19T00:13:18.532Z,117.75
2023-05-19T00:14:18.564Z,111.68
2023-05-19T00:15:18.592Z,112.74
2023-05-19T00:16:18.698Z,108.52
2023-05-19T00:17:18.641Z,111.20
2023-05-19T00:18:18.662Z,110.28
2023-05-19T00:19:18.830Z,112.58
2023-05-19T00:20:18.740Z,96.49
2023-05-19T00:21:18.770Z,99.75
2023-05-19T00:22:18.811Z,108.02
2023-05-19T00:23:18.844Z,114.04
2023-05-19T00:24:18.877Z,114.97
2023-05-19T00:25:18.925Z,115.94
2023-05-19T00:26:18.916Z,117.40
2023-05-19T00:27:18.968Z,113.12
2023-05-19T00:28:18.968Z,115.61
2023-05-19T00:29:19.022Z,116.55
2023-05-19T00:30:19.050Z,118.83
2023-05-19T00:31:19.120Z,117.97
2023-05-19T00:32:19.098Z,109.34
2023-05-19T00:33:19.110Z,108.79
2023-05-19T00:34:19.117Z,104.86
2023-05-19T00:35:19.172Z,103.85
2023-05-19T00:36:19.213Z,99.79
2023-05-19T00:37:19.249Z,92.19
2023-05-19T00:38:19.241Z,90.61
2023-05-19T00:39:19.298Z,91.61
2023-05-19T00:40:19.300Z,96.11
2023-05-19T00:41:19.341Z,107.82
2023-05-19T00:42:19.480Z,108.28
2023-05-19T00:43:19.405Z,113.25
2023-05-19T00:44:19.473Z,120.52
2023-05-19T00:45:19.497Z,121.90
2023-05-19T00:46:19.609Z,124.66
2023-05-19T00:47:19.514Z,125.23
2023-05-19T00:48:19.517Z,126.71
2023-05-19T00:49:19.552Z,129.99
2023-05-19T00:50:19.606Z,134.82
2023-05-19T00:51:19.593Z,133.24
2023-05-19T00:52:19.654Z,135.34
2023-05-19T00:53:19.633Z,135.21
2023-05-19T00:54:19.650Z,132.80
2023-05-19T00:55:19.715Z,128.22
2023-05-19T00:56:19.757Z,121.37
2023-05-19T00:57:19.758Z,118.82
2023-05-19T00:58:19.778Z,123.71
2023-05-19T00:59:19.783Z,131.07
2023-05-19T01:00:19.805Z,127.87
2023-05-19T01:01:19.899Z,127.99
2023-05-19T01:02:19.900Z,132.21
2023-05-19T01:03:20.037Z,127.25
2023-05-19T01:04:19.918Z,120.63
2023-05-19T01:05:19.965Z,129.88
2023-05-19T01:06:19.980Z,135.43
2023-05-19T01:07:20.077Z,138.38
2023-05-19T01:08:20.114Z,139.33
2023-05-19T01:09:20.165Z,138.54
2023-05-19T01:10:20.266Z,133.04
2023-05-19T01:11:20.313Z,135.43
2023-05-19T01:12:20.333Z,131.20
2023-05-19T01:13:20.362Z,134.78
2023-05-19T01:14:20.391Z,137.03
2023-05-19T01:15:20.384Z,136.08
2023-05-19T01:16:20.476Z,138.73
2023-05-19T01:17:20.470Z,141.13
2023-05-19T01:18:20.468Z,133.88
2023-05-19T01:19:20.612Z,132.47
2023-05-19T01:20:20.524Z,126.28
2023-05-19T01:21:20.548Z,137.11
2023-05-19T01:22:20.575Z,132.40
2023-05-19T01:23:20.594Z,133.74
2023-05-19T01:24:20.612Z,134.17
2023-05-19T01:25:20.609Z,140.66
2023-05-19T01:26:20.697Z,140.94
2023-05-19T01:27:20.680Z,146.72
2023-05-19T01:28:20.721Z,150.96
2023-05-19T01:29:20.720Z,152.51
2023-05-19T01:30:20.775Z,157.65
2023-05-19T01:31:20.771Z,161.80
2023-05-19T01:32:20.797Z,162.49
2023-05-19T01:33:20.814Z,169.20
2023-05-19T01:34:20.850Z,172.45
2023-05-19T01:35:20.921Z,176.67
2023-05-19T01:36:20.886Z,180.09
2023-05-19T01:37:20.879Z,184.12
2023-05-19T01:38:20.930Z,189.92
2023-05-19T01:39:20.934Z,201.46
2023-05-19T01:40:20.971Z,207.65
2023-05-19T01:41:20.967Z,218.07
2023-05-19T01:42:20.978Z,218.12
2023-05-19T01:43:21.017Z,223.95
2023-05-19T01:44:21.061Z,217.98
2023-05-19T01:45:21.122Z,209.44
2023-05-19T01:46:21.213Z,216.94
2023-05-19T01:47:21.189Z,219.65
2023-05-19T01:48:21.207Z,219.61
2023-05-19T01:49:21.246Z,209.40
2023-05-19T01:50:21.286Z,201.44
2023-05-19T01:51:21.295Z,200.51
2023-05-19T01:52:21.300Z,200.28
2023-05-19T01:53:21.317Z,196.98
2023-05-19T01:54:21.413Z,191.56
2023-05-19T01:55:21.439Z,192.87
2023-05-19T01:56:21.503Z,193.84
2023-05-19T01:57:21.525Z,192.18
2023-05-19T01:58:21.591Z,193.20
2023-05-19T01:59:21.620Z,196.61
2023-05-19T02:00:21.686Z,198.53
2023-05-19T02:01:21.717Z,190.32
2023-05-19T02:02:21.780Z,193.61
2023-05-19T02:03:21.788Z,191.12
2023-05-19T02:04:21.854Z,188.10
2023-05-19T02:05:21.872Z,190.92
2023-05-19T02:06:21.876Z,192.36
2023-05-19T02:07:21.957Z,190.16
2023-05-19T02:08:21.984Z,192.75
2023-05-19T02:09:22.022Z,191.01
2023-05-19T02:10:22.077Z,193.65
2023-05-19T02:11:22.094Z,195.93
2023-05-19T02:12:22.139Z,194.39
2023-05-19T02:13:22.168Z,196.06
2023-05-19T02:14:22.236Z,196.61
2023-05-19T02:15:22.338Z,196.19
2023-05-19T02:16:22.316Z,199.00
2023-05-19T02:17:22.356Z,199.91
2023-05-19T02:18:22.399Z,199.91
2023-05-19T02:19:22.611Z,203.95
2023-05-19T02:20:22.502Z,200.52
2023-05-19T02:21:22.504Z,198.70
2023-05-19T02:22:22.536Z,201.73
2023-05-19T02:23:22.609Z,202.63
2023-05-19T02:24:22.658Z,206.40
2023-05-19T02:25:22.638Z,211.49
2023-05-19T02:26:22.754Z,216.78
2023-05-19T02:27:22.718Z,215.23
2023-05-19T02:28:22.757Z,217.65
2023-05-19T02:29:22.799Z,215.22
2023-05-19T02:30:22.851Z,214.62
2023-05-19T02:31:22.932Z,215.11
2023-05-19T02:32:22.925Z,214.41
2023-05-19T02:33:22.991Z,208.21
2023-05-19T02:34:23.013Z,211.04
2023-05-19T02:35:23.049Z,213.28
2023-05-19T02:36:23.100Z,211.90
2023-05-19T02:37:23.134Z,210.55
2023-05-19T02:38:23.156Z,211.84
2023-05-19T02:39:23.195Z,215.59
2023-05-19T02:40:23.257Z,220.50
2023-05-19T02:41:23.287Z,220.95
2023-05-19T02:42:23.348Z,217.78
2023-05-19T02:43:23.356Z,218.25
2023-05-19T02:44:23.416Z,215.93
2023-05-19T02:45:23.456Z,214.64
2023-05-19T02:46:23.502Z,220.04
2023-05-19T02:47:23.568Z,222.59
2023-05-19T02:48:23.560Z,225.39
2023-05-19T02:49:23.582Z,230.95
2023-05-19T02:50:23.626Z,230.60
2023-05-19T02:51:23.676Z,226.85
2023-05-19T02:52:23.727Z,231.35
2023-05-19T02:53:23.755Z,227.89
2023-05-19T02:54:23.810Z,225.15
2023-05-19T02:55:23.829Z,227.63
2023-05-19T02:56:23.878Z,231.53
2023-05-19T02:57:23.913Z,233.85
2023-05-19T02:58:23.969Z,234.31
2023-05-19T02:59:25.607Z,230.24
2023-05-19T03:00:24.073Z,229.25
2023-05-19T03:01:24.130Z,231.56
2023-05-19T03:02:24.129Z,226.24
2023-05-19T03:03:24.454Z,225.71
2023-05-19T03:04:24.216Z,226.70
2023-05-19T03:05:24.265Z,228.14
2023-05-19T03:06:24.316Z,228.75
2023-05-19T03:07:24.350Z,230.50
2023-05-19T03:08:24.386Z,233.42
2023-05-19T03:09:24.459Z,237.68
2023-05-19T03:10:24.473Z,235.09
2023-05-19T03:11:24.525Z,234.78
2023-05-19T03:12:24.879Z,241.56
2023-05-19T03:13:24.973Z,239.22
2023-05-19T03:14:24.630Z,232.71
2023-05-19T03:15:24.678Z,227.41
2023-05-19T03:16:24.744Z,230.56
2023-05-19T03:17:24.902Z,231.63
2023-05-19T03:18:24.833Z,228.41
2023-05-19T03:19:24.920Z,228.65
2023-05-19T03:20:24.844Z,228.31
2023-05-19T03:21:24.881Z,233.84
2023-05-19T03:22:24.945Z,227.31
2023-05-19T03:23:24.987Z,231.82
2023-05-19T03:24:25.016Z,227.16
2023-05-19T03:25:25.050Z,228.22
2023-05-19T03:26:25.084Z,232.87
2023-05-19T03:27:25.159Z,230.56
2023-05-19T03:28:25.177Z,232.83
2023-05-19T03:29:25.207Z,227.24
2023-05-19T03:30:25.268Z,226.74
2023-05-19T03:31:25.306Z,226.47
2023-05-19T03:32:25.411Z,229.55
2023-05-19T03:33:25.466Z,228.89
2023-05-19T03:34:25.399Z,226.91
2023-05-19T03:35:25.440Z,229.95
2023-05-19T03:36:25.463Z,231.49
2023-05-19T03:37:25.510Z,229.32
2023-05-19T03:38:25.547Z,227.40
2023-05-19T03:39:25.604Z,229.49
2023-05-19T03:40:25.649Z,225.68
2023-05-19T03:41:25.711Z,231.16
2023-05-19T03:42:25.726Z,231.86
2023-05-19T03:43:25.760Z,224.41
2023-05-19T03:44:25.793Z,231.63
2023-05-19T03:45:25.832Z,230.88
2023-05-19T03:46:26.020Z,229.23
2023-05-19T03:47:26.026Z,228.51
2023-05-19T03:48:25.956Z,226.34
2023-05-19T03:49:25.977Z,225.85
2023-05-19T03:50:26.043Z,223.73
2023-05-19T03:51:26.070Z,222.94
2023-05-19T03:52:26.114Z,222.83
2023-05-19T03:53:26.169Z,223.27
2023-05-19T03:54:26.195Z,225.68
2023-05-19T03:55:26.231Z,228.77
2023-05-19T03:56:26.237Z,225.59
2023-05-19T03:57:26.281Z,228.86
2023-05-19T03:58:26.324Z,229.61
2023-05-19T03:59:26.374Z,232.10
2023-05-19T04:00:26.387Z,228.33
2023-05-19T04:01:26.428Z,227.55
2023-05-19T04:02:26.515Z,232.19
2023-05-19T04:03:26.563Z,229.30
2023-05-19T04:04:26.583Z,227.97
2023-05-19T04:05:26.549Z,223.96
2023-05-19T04:06:26.566Z,227.66
2023-05-19T04:07:26.609Z,227.76
2023-05-19T04:08:26.658Z,226.25
2023-05-19T04:09:26.654Z,223.72
2023-05-19T04:10:26.702Z,222.52
2023-05-19T04:11:26.716Z,226.27
2023-05-19T04:12:26.779Z,225.87
2023-05-19T04:13:26.803Z,224.97
2023-05-19T04:14:26.843Z,221.96
2023-05-19T04:15:26.911Z,227.94
2023-05-19T04:16:26.943Z,227.94
2023-05-19T04:17:27.005Z,228.73
2023-05-19T04:18:28.898Z,230.34
2023-05-19T04:19:27.021Z,230.24
2023-05-19T04:20:27.018Z,236.84
2023-05-19T04:21:27.044Z,235.10
2023-05-19T04:22:27.069Z,232.55
2023-05-19T04:23:27.096Z,230.65
2023-05-19T04:24:27.127Z,231.05
2023-05-19T04:25:27.169Z,228.21
2023-05-19T04:26:27.175Z,231.75
2023-05-19T04:27:27.230Z,230.39
2023-05-19T04:28:27.218Z,230.93
2023-05-19T04:29:27.267Z,234.26
2023-05-19T04:30:27.271Z,230.88
2023-05-19T04:31:27.327Z,234.66
2023-05-19T04:32:27.375Z,233.67
2023-05-19T04:33:27.384Z,224.84
2023-05-19T04:34:27.388Z,232.01
2023-05-19T04:35:27.409Z,227.69
2023-05-19T04:36:27.428Z,237.12
2023-05-19T04:37:27.498Z,234.75
2023-05-19T04:38:27.509Z,233.76
2023-05-19T04:39:27.523Z,228.09
2023-05-19T04:40:27.534Z,224.83
2023-05-19T04:41:27.601Z,226.73
2023-05-19T04:42:27.596Z,225.35
2023-05-19T04:43:27.633Z,224.66
2023-05-19T04:44:27.724Z,225.36
2023-05-19T04:45:27.685Z,225.46
2023-05-19T04:46:27.748Z,220.04
2023-05-19T04:47:27.776Z,219.85
2023-05-19T04:48:27.790Z,222.81
2023-05-19T04:49:27.844Z,219.71
2023-05-19T04:50:27.864Z,221.60
2023-05-19T04:51:29.231Z,220.36
2023-05-19T04:52:28.056Z,219.22
2023-05-19T04:53:28.127Z,214.43
2023-05-19T04:54:28.119Z,214.22
2023-05-19T04:55:28.168Z,209.72
2023-05-19T04:56:28.172Z,209.47
2023-05-19T04:57:28.234Z,210.48
2023-05-19T04:58:28.262Z,207.12
2023-05-19T04:59:28.309Z,207.36
2023-05-19T05:00:35.564Z,209.76
2023-05-19T05:01:28.402Z,210.31
2023-05-19T05:02:28.345Z,210.93
2023-05-19T05:03:28.400Z,212.56
2023-05-19T05:04:28.284Z,213.68
2023-05-19T05:05:28.278Z,214.39
2023-05-19T05:06:28.275Z,211.81
2023-05-19T05:07:29.380Z,213.97
2023-05-19T05:08:28.449Z,215.56
2023-05-19T05:09:28.501Z,217.04
2023-05-19T05:10:28.548Z,214.83
2023-05-19T05:11:28.576Z,207.01
2023-05-19T05:12:28.628Z,208.18
2023-05-19T05:13:28.658Z,205.25
2023-05-19T05:14:28.704Z,205.09
2023-05-19T05:15:28.711Z,207.25
2023-05-19T05:16:28.789Z,201.95
2023-05-19T05:17:28.889Z,203.39
2023-05-19T05:18:28.831Z,202.58
2023-05-19T05:19:28.940Z,202.06
2023-05-19T05:20:28.904Z,204.61
2023-05-19T05:21:28.913Z,200.26
2023-05-19T05:22:28.962Z,201.86
2023-05-19T05:23:29.001Z,198.46
2023-05-19T05:24:29.026Z,200.83
2023-05-19T05:25:29.056Z,192.52
2023-05-19T05:26:29.081Z,187.95
2023-05-19T05:27:29.130Z,192.16
2023-05-19T05:28:29.157Z,185.60
2023-05-19T05:29:29.211Z,190.57
2023-05-19T05:30:29.275Z,190.99
2023-05-19T05:31:29.333Z,185.86
2023-05-19T05:32:29.410Z,191.62
2023-05-19T05:33:29.424Z,186.42
2023-05-19T05:34:29.381Z,180.36
2023-05-19T05:35:29.452Z,179.05
2023-05-19T05:36:29.462Z,183.47
2023-05-19T05:37:29.608Z,183.24
2023-05-19T05:38:29.533Z,183.88
2023-05-19T05:39:29.588Z,186.59
2023-05-19T05:40:29.592Z,183.50
2023-05-19T05:41:29.643Z,179.58
2023-05-19T05:42:29.961Z,186.20
2023-05-19T05:43:29.661Z,184.80
2023-05-19T05:44:29.717Z,189.45
2023-05-19T05:45:36.876Z,186.82
2023-05-19T05:46:29.843Z,182.51
2023-05-19T05:47:29.784Z,175.04
2023-05-19T05:48:29.736Z,174.85
2023-05-19T05:49:29.746Z,179.71
2023-05-19T05:50:29.793Z,171.64
2023-05-19T05:51:29.738Z,172.98
2023-05-19T05:52:29.730Z,168.58
2023-05-19T05:53:29.738Z,181.04
2023-05-19T05:54:29.708Z,183.17
2023-05-19T05:55:29.731Z,184.63
2023-05-19T05:56:29.717Z,184.99
2023-05-19T05:57:29.748Z,184.38
2023-05-19T05:58:29.729Z,191.58
2023-05-19T05:59:29.678Z,201.24
2023-05-19T06:00:29.884Z,205.50
2023-05-19T06:01:29.874Z,198.59
2023-05-19T06:02:29.792Z,194.55
2023-05-19T06:03:29.726Z,197.59
2023-05-19T06:04:29.681Z,195.03
2023-05-19T06:05:29.716Z,197.34
2023-05-19T06:06:29.759Z,200.92
2023-05-19T06:07:29.708Z,215.57
2023-05-19T06:08:29.738Z,217.17
2023-05-19T06:09:29.697Z,204.38
2023-05-19T06:10:29.748Z,206.54
2023-05-19T06:11:29.695Z,203.10
2023-05-19T06:12:29.671Z,205.30
2023-05-19T06:13:29.684Z,218.25
2023-05-19T06:14:29.706Z,217.10
2023-05-19T06:15:29.678Z,212.39
2023-05-19T06:16:29.797Z,216.32
2023-05-19T06:17:29.834Z,220.08
2023-05-19T06:18:29.806Z,210.17
2023-05-19T06:19:29.949Z,206.65
2023-05-19T06:20:29.970Z,205.01
2023-05-19T06:21:29.944Z,214.76
2023-05-19T06:22:29.947Z,216.44
2023-05-19T06:23:29.986Z,210.18
2023-05-19T06:24:30.032Z,208.84
2023-05-19T06:25:30.289Z,208.18
2023-05-19T06:26:30.104Z,211.33
2023-05-19T06:27:30.824Z,211.10
2023-05-19T06:28:30.196Z,216.41
2023-05-19T06:29:30.225Z,211.46
2023-05-19T06:30:30.381Z,213.36
2023-05-19T06:31:30.305Z,216.37
2023-05-19T06:32:30.321Z,214.56
2023-05-19T06:33:30.353Z,216.27
2023-05-19T06:34:30.405Z,214.47
2023-05-19T06:35:30.433Z,225.65
2023-05-19T06:36:30.489Z,226.40
2023-05-19T06:37:30.502Z,225.21
2023-05-19T06:38:30.599Z,224.80
2023-05-19T06:39:30.629Z,218.18
2023-05-19T06:40:30.864Z,217.80
2023-05-19T06:41:30.675Z,214.18
2023-05-19T06:42:30.732Z,218.30
2023-05-19T06:43:30.776Z,218.45
2023-05-19T06:44:30.839Z,210.11
2023-05-19T06:45:30.882Z,208.02
2023-05-19T06:46:30.998Z,207.00
2023-05-19T06:47:30.991Z,200.29
2023-05-19T06:48:30.990Z,202.27
2023-05-19T06:49:30.996Z,201.74
2023-05-19T06:50:31.330Z,209.80
2023-05-19T06:51:31.111Z,213.78
2023-05-19T06:52:31.116Z,211.93
2023-05-19T06:53:31.149Z,194.18
2023-05-19T06:54:31.201Z,182.93
2023-05-19T06:55:31.196Z,174.22
2023-05-19T06:56:31.282Z,166.11
2023-05-19T06:57:31.300Z,171.48
2023-05-19T06:58:31.351Z,165.31
2023-05-19T06:59:31.376Z,159.33
2023-05-19T07:00:31.471Z,156.30
2023-05-19T07:01:31.484Z,164.68
2023-05-19T07:02:31.648Z,169.01
2023-05-19T07:03:31.665Z,166.04
2023-05-19T07:04:31.566Z,163.24
2023-05-19T07:05:31.594Z,149.91
2023-05-19T07:06:31.648Z,147.93
2023-05-19T07:07:31.707Z,158.11
2023-05-19T07:08:31.715Z,165.67
2023-05-19T07:09:31.761Z,184.20
2023-05-19T07:10:31.963Z,190.67
2023-05-19T07:11:31.843Z,186.56
2023-05-19T07:12:31.879Z,193.02
2023-05-19T07:13:31.911Z,194.04
2023-05-19T07:14:31.966Z,191.40
2023-05-19T07:15:32.011Z,176.41
2023-05-19T07:16:32.089Z,184.02
2023-05-19T07:17:32.105Z,181.41
2023-05-19T07:18:32.126Z,189.03
2023-05-19T07:19:32.217Z,197.11
2023-05-19T07:20:32.329Z,195.04
2023-05-19T07:21:32.306Z,198.37
2023-05-19T07:22:32.305Z,190.63
2023-05-19T07:23:32.345Z,182.40
2023-05-19T07:24:32.369Z,176.69
2023-05-19T07:25:32.449Z,169.32
2023-05-19T07:26:32.460Z,165.76
2023-05-19T07:27:32.499Z,156.96
2023-05-19T07:28:32.523Z,151.66
2023-05-19T07:29:32.576Z,149.40
2023-05-19T07:30:32.800Z,149.82
2023-05-19T07:31:32.691Z,152.67
2023-05-19T07:32:32.684Z,149.17
2023-05-19T07:33:32.726Z,149.20
2023-05-19T07:34:32.738Z,140.62
2023-05-19T07:35:32.835Z,155.34
2023-05-19T07:36:32.829Z,166.40
2023-05-19T07:37:32.860Z,166.83
2023-05-19T07:38:32.976Z,172.92
2023-05-19T07:39:32.916Z,169.48
2023-05-19T07:40:33.089Z,173.82
2023-05-19T07:41:34.284Z,165.49
2023-05-19T07:42:33.080Z,170.65
2023-05-19T07:43:33.141Z,172.60
2023-05-19T07:44:33.159Z,185.02
2023-05-19T07:45:33.225Z,179.58
2023-05-19T07:46:33.320Z,177.00
2023-05-19T07:47:33.322Z,172.84
2023-05-19T07:48:33.329Z,174.78
2023-05-19T07:49:33.353Z,164.72
2023-05-19T07:50:33.496Z,152.87
2023-05-19T07:51:33.440Z,145.47
2023-05-19T07:52:33.481Z,143.74
2023-05-19T07:53:33.583Z,140.53
2023-05-19T07:54:33.624Z,144.92
2023-05-19T07:55:33.637Z,129.70
2023-05-19T07:56:33.683Z,125.06
2023-05-19T07:57:33.723Z,134.86
2023-05-19T07:58:33.770Z,143.73
2023-05-19T07:59:33.805Z,150.19
2023-05-19T08:00:33.962Z,133.07
2023-05-19T08:01:33.872Z,109.97
2023-05-19T08:02:33.941Z,114.42
2023-05-19T08:03:34.083Z,111.84
2023-05-19T08:04:34.050Z,107.60
2023-05-19T08:05:34.058Z,108.95
2023-05-19T08:06:34.086Z,110.52
2023-05-19T08:07:34.096Z,114.87
2023-05-19T08:08:34.185Z,126.68
2023-05-19T08:09:34.196Z,117.98
2023-05-19T08:10:34.668Z,132.36
2023-05-19T08:11:34.275Z,127.94
2023-05-19T08:12:34.332Z,127.78
2023-05-19T08:13:34.378Z,115.67
2023-05-19T08:14:34.361Z,114.92
2023-05-19T08:15:34.471Z,116.53
2023-05-19T08:16:34.485Z,131.65
2023-05-19T08:17:34.511Z,133.70
2023-05-19T08:18:34.550Z,129.79
2023-05-19T08:19:34.605Z,123.34
2023-05-19T08:20:34.938Z,137.07
2023-05-19T08:21:34.653Z,124.27
2023-05-19T08:22:34.738Z,115.94
2023-05-19T08:23:34.729Z,118.35
2023-05-19T08:24:34.757Z,120.78
2023-05-19T08:25:34.891Z,123.65
2023-05-19T08:26:36.942Z,112.60
2023-05-19T08:27:34.870Z,102.25
2023-05-19T08:28:34.823Z,98.60
2023-05-19T08:29:34.838Z,100.98
2023-05-19T08:30:34.978Z,94.11
2023-05-19T08:31:34.918Z,106.81
2023-05-19T08:32:34.804Z,120.85
2023-05-19T08:33:34.803Z,125.15
2023-05-19T08:34:34.773Z,127.43
2023-05-19T08:35:34.777Z,126.56
2023-05-19T08:36:34.750Z,133.34
2023-05-19T08:37:34.747Z,125.63
2023-05-19T08:38:34.733Z,124.75
2023-05-19T08:39:34.739Z,125.56
2023-05-19T08:40:34.895Z,131.90
2023-05-19T08:41:34.738Z,133.90
2023-05-19T08:42:34.726Z,113.95
2023-05-19T08:43:34.764Z,114.55
2023-05-19T08:44:34.700Z,123.90
2023-05-19T08:45:34.856Z,125.52
2023-05-19T08:46:34.722Z,131.00
2023-05-19T08:47:34.698Z,115.45
2023-05-19T08:48:34.625Z,111.22
2023-05-19T08:49:34.663Z,119.36
2023-05-19T08:50:34.909Z,117.16
2023-05-19T08:51:34.601Z,124.72
2023-05-19T08:52:34.609Z,138.00
2023-05-19T08:53:34.899Z,134.50
2023-05-19T08:54:34.597Z,140.24
2023-05-19T08:55:34.767Z,146.86
2023-05-19T08:56:34.544Z,140.53
2023-05-19T08:57:34.632Z,138.88
2023-05-19T08:58:34.536Z,135.30
2023-05-19T08:59:34.526Z,138.88
2023-05-19T09:00:34.734Z,134.37
2023-05-19T09:01:34.569Z,132.52
2023-05-19T09:02:34.542Z,135.09
2023-05-19T09:03:34.536Z,124.35
2023-05-19T09:04:34.568Z,123.84
2023-05-19T09:05:34.831Z,126.11
2023-05-19T09:06:34.463Z,124.99
2023-05-19T09:07:34.482Z,119.73
2023-05-19T09:08:34.421Z,107.43
2023-05-19T09:09:34.464Z,104.99
2023-05-19T09:10:34.432Z,112.16
2023-05-19T09:11:34.400Z,109.01
2023-05-19T09:12:34.414Z,127.28
2023-05-19T09:13:34.452Z,116.24
2023-05-19T09:14:34.375Z,108.29
2023-05-19T09:15:34.654Z,104.58
2023-05-19T09:16:34.494Z,110.41
2023-05-19T09:17:34.465Z,109.92
2023-05-19T09:18:34.379Z,112.66
2023-05-19T09:19:34.488Z,111.38
2023-05-19T09:20:34.413Z,107.35
2023-05-19T09:21:34.451Z,104.65
2023-05-19T09:22:34.498Z,95.89
2023-05-19T09:23:34.540Z,96.07
2023-05-19T09:24:34.540Z,87.79
2023-05-19T09:25:34.821Z,92.48
2023-05-19T09:26:34.585Z,88.31
2023-05-19T09:27:34.605Z,95.15
2023-05-19T09:28:34.665Z,94.24
2023-05-19T09:29:34.731Z,93.78
2023-05-19T09:30:34.730Z,95.28
2023-05-19T09:31:34.785Z,101.43
2023-05-19T09:32:34.849Z,102.44
2023-05-19T09:33:34.820Z,105.78
2023-05-19T09:34:34.876Z,104.80
2023-05-19T09:35:35.218Z,105.70
2023-05-19T09:36:34.921Z,109.66
2023-05-19T09:37:34.962Z,105.76
2023-05-19T09:38:34.997Z,102.04
2023-05-19T09:39:35.026Z,102.17
2023-05-19T09:40:35.046Z,98.52
2023-05-19T09:41:35.093Z,95.68
2023-05-19T09:42:35.091Z,89.42
2023-05-19T09:43:35.159Z,96.15
2023-05-19T09:44:35.164Z,98.84
2023-05-19T09:45:35.284Z,93.02
2023-05-19T09:46:35.369Z,83.16
2023-05-19T09:47:35.336Z,80.44
2023-05-19T09:48:35.320Z,81.95
2023-05-19T09:49:35.314Z,89.97
2023-05-19T09:50:35.352Z,87.09
2023-05-19T09:51:35.359Z,101.09
2023-05-19T09:52:35.398Z,91.86
2023-05-19T09:53:35.488Z,92.46
2023-05-19T09:54:35.428Z,89.81
2023-05-19T09:55:35.533Z,84.75
2023-05-19T09:56:35.498Z,88.27
2023-05-19T09:57:35.547Z,84.16
2023-05-19T09:58:35.710Z,86.70
2023-05-19T09:59:35.578Z,83.19
2023-05-19T10:00:35.588Z,79.37
2023-05-19T10:01:35.667Z,57.96
2023-05-19T10:02:35.668Z,63.96
2023-05-19T10:03:35.674Z,65.84
2023-05-19T10:04:35.688Z,59.42
2023-05-19T10:05:35.921Z,63.22
2023-05-19T10:06:35.707Z,69.83
2023-05-19T10:07:35.770Z,61.91
2023-05-19T10:08:35.782Z,57.45
2023-05-19T10:09:35.796Z,55.90
2023-05-19T10:10:35.786Z,57.65
2023-05-19T10:11:35.844Z,64.26
2023-05-19T10:12:35.841Z,70.95
2023-05-19T10:13:35.885Z,77.86
2023-05-19T10:14:35.888Z,71.24
2023-05-19T10:15:40.858Z,78.17
2023-05-19T10:16:36.912Z,78.26
2023-05-19T10:17:36.001Z,78.49
2023-05-19T10:18:37.467Z,78.86
2023-05-19T10:19:35.985Z,80.03
2023-05-19T10:20:35.917Z,78.96
2023-05-19T10:21:35.967Z,78.14
2023-05-19T10:22:36.008Z,83.51
2023-05-19T10:23:36.024Z,81.02
2023-05-19T10:24:36.034Z,72.26
2023-05-19T10:25:36.059Z,70.25
2023-05-19T10:26:36.067Z,65.97
2023-05-19T10:27:36.104Z,59.67
2023-05-19T10:28:36.089Z,64.34
2023-05-19T10:29:36.168Z,68.91
2023-05-19T10:30:36.162Z,73.22
2023-05-19T10:31:36.217Z,78.74
2023-05-19T10:32:36.234Z,74.90
2023-05-19T10:33:36.212Z,73.16
2023-05-19T10:34:36.247Z,66.60
2023-05-19T10:35:36.406Z,62.40
2023-05-19T10:36:36.266Z,64.07
2023-05-19T10:37:36.314Z,55.53
2023-05-19T10:38:36.324Z,57.93
2023-05-19T10:39:36.336Z,65.84
2023-05-19T10:40:36.360Z,66.20
2023-05-19T10:41:36.378Z,60.80
2023-05-19T10:42:36.378Z,55.74
2023-05-19T10:43:36.394Z,56.53
2023-05-19T10:44:36.421Z,68.79
2023-05-19T10:45:36.443Z,73.68
2023-05-19T10:46:36.468Z,81.49
2023-05-19T10:47:36.517Z,81.59
2023-05-19T10:48:36.433Z,80.71
2023-05-19T10:49:36.530Z,89.62
2023-05-19T10:50:36.484Z,81.36
2023-05-19T10:51:36.512Z,78.14
2023-05-19T10:52:36.532Z,84.84
2023-05-19T10:53:36.548Z,79.39
2023-05-19T10:54:36.559Z,68.09
2023-05-19T10:55:36.554Z,65.51
2023-05-19T10:56:36.572Z,74.68
2023-05-19T10:57:36.595Z,76.01
2023-05-19T10:58:36.623Z,84.51
2023-05-19T10:59:36.676Z,80.09
2023-05-19T11:00:36.627Z,81.59
2023-05-19T11:01:36.702Z,80.57
2023-05-19T11:02:36.726Z,77.47
2023-05-19T11:03:36.730Z,74.29
2023-05-19T11:04:36.706Z,80.17
2023-05-19T11:05:36.741Z,75.59
2023-05-19T11:06:36.728Z,71.91
2023-05-19T11:07:36.773Z,75.14
2023-05-19T11:08:36.759Z,75.69
2023-05-19T11:09:40.538Z,79.20
2023-05-19T11:10:36.780Z,79.37
2023-05-19T11:11:36.762Z,80.53
2023-05-19T11:12:36.781Z,80.15
2023-05-19T11:13:36.830Z,82.60
2023-05-19T11:14:36.714Z,79.51
2023-05-19T11:15:36.687Z,71.97
2023-05-19T11:16:36.718Z,74.87
2023-05-19T11:17:36.709Z,77.27
2023-05-19T11:18:36.641Z,80.86
2023-05-19T11:19:36.660Z,85.73
2023-05-19T11:20:36.623Z,83.13
2023-05-19T11:21:36.706Z,82.36
2023-05-19T11:22:36.598Z,84.28
2023-05-19T11:23:36.593Z,84.68
2023-05-19T11:24:36.618Z,85.18
2023-05-19T11:25:36.539Z,92.29
2023-05-19T11:26:36.549Z,95.31
2023-05-19T11:27:36.555Z,94.96
2023-05-19T11:28:36.594Z,89.36
2023-05-19T11:29:36.492Z,94.00
2023-05-19T11:30:36.514Z,96.60
2023-05-19T11:31:36.541Z,97.53
2023-05-19T11:32:36.522Z,93.57
2023-05-19T11:33:36.495Z,90.03
2023-05-19T11:34:36.504Z,100.33
2023-05-19T11:35:36.820Z,96.97
2023-05-19T11:36:36.462Z,92.03
2023-05-19T11:37:36.437Z,88.43
2023-05-19T11:38:36.417Z,95.60
2023-05-19T11:39:36.435Z,93.84
2023-05-19T11:40:36.417Z,94.59
2023-05-19T11:41:36.362Z,89.06
2023-05-19T11:42:36.378Z,90.41
2023-05-19T11:43:36.379Z,88.00
2023-05-19T11:44:36.365Z,95.93
2023-05-19T11:45:36.554Z,98.82
2023-05-19T11:46:36.458Z,98.81
2023-05-19T11:47:50.693Z,106.24
2023-05-19T11:48:37.346Z,106.73
2023-05-19T11:49:36.307Z,107.62
2023-05-19T11:50:36.276Z,107.49
2023-05-19T11:51:36.236Z,108.34
2023-05-19T11:52:36.256Z,112.54
2023-05-19T11:53:36.340Z,110.19
2023-05-19T11:54:36.226Z,113.98
2023-05-19T11:55:36.216Z,123.73
2023-05-19T11:56:36.228Z,124.08
2023-05-19T11:57:36.218Z,122.50
2023-05-19T11:58:36.259Z,121.63
2023-05-19T11:59:36.422Z,124.59
2023-05-19T12:00:36.188Z,128.55
2023-05-19T12:01:36.160Z,124.73
2023-05-19T12:02:36.326Z,109.87
2023-05-19T12:03:36.322Z,108.34
2023-05-19T12:04:36.267Z,108.00
2023-05-19T12:05:39.092Z,106.81
2023-05-19T12:06:36.146Z,106.82
2023-05-19T12:07:36.154Z,93.50
2023-05-19T12:08:36.132Z,102.95
2023-05-19T12:09:36.095Z,105.56
2023-05-19T12:10:36.083Z,115.31
2023-05-19T12:11:36.118Z,117.39
2023-05-19T12:12:36.102Z,119.40
2023-05-19T12:13:36.075Z,131.01
2023-05-19T12:14:36.081Z,126.47
2023-05-19T12:15:36.133Z,126.55
2023-05-19T12:16:36.066Z,114.62
2023-05-19T12:17:36.069Z,110.67
2023-05-19T12:18:36.041Z,115.24
2023-05-19T12:19:36.099Z,117.17
2023-05-19T12:20:36.551Z,113.17
2023-05-19T12:21:36.026Z,111.67
2023-05-19T12:22:36.007Z,98.13
2023-05-19T12:23:36.006Z,94.60
2023-05-19T12:24:35.981Z,104.55
2023-05-19T12:25:36.303Z,101.49
2023-05-19T12:26:36.027Z,93.95
2023-05-19T12:27:36.034Z,88.52
2023-05-19T12:28:36.039Z,88.60
2023-05-19T12:29:36.056Z,82.97
2023-05-19T12:30:36.225Z,77.34
2023-05-19T12:31:36.142Z,64.65
2023-05-19T12:32:36.167Z,65.31
2023-05-19T12:33:36.143Z,57.52